sensor_id;sensor_type;location;lat;lon;timestamp;temperature;humidity
7844;DHT22;3967;48.702;9.326;2022-12-17T00:00:17;-1.00;92.20
7844;DHT22;3967;48.702;9.326;2022-12-17T00:03:02;-1.00;92.30
7844;DHT22;3967;48.702;9.326;2022-12-17T00:05:48;-1.00;92.20
7844;DHT22;3967;48.702;9.326;2022-12-17T00:08:35;-1.10;92.20
7844;DHT22;3967;48.702;9.326;2022-12-17T00:11:21;-1.00;92.00
7844;DHT22;3967;48.702;9.326;2022-12-17T00:14:07;-1.10;91.80
7844;DHT22;3967;48.702;9.326;2022-12-17T00:16:52;-1.20;91.80
7844;DHT22;3967;48.702;9.326;2022-12-17T00:19:39;-1.20;92.00
7844;DHT22;3967;48.702;9.326;2022-12-17T00:22:24;-1.20;92.20
7844;DHT22;3967;48.702;9.326;2022-12-17T00:25:10;-1.20;92.20
7844;DHT22;3967;48.702;9.326;2022-12-17T00:27:55;-1.20;92.20
7844;DHT22;3967;48.702;9.326;2022-12-17T00:30:41;-1.30;92.20
7844;DHT22;3967;48.702;9.326;2022-12-17T00:33:26;-1.30;92.20
7844;DHT22;3967;48.702;9.326;2022-12-17T00:36:11;-1.30;92.30
7844;DHT22;3967;48.702;9.326;2022-12-17T00:38:57;-1.40;92.30
7844;DHT22;3967;48.702;9.326;2022-12-17T00:41:42;-1.40;92.10
7844;DHT22;3967;48.702;9.326;2022-12-17T00:44:27;-1.40;92.00
7844;DHT22;3967;48.702;9.326;2022-12-17T00:47:27;-1.40;91.90
7844;DHT22;3967;48.702;9.326;2022-12-17T00:50:12;-1.50;91.90
7844;DHT22;3967;48.702;9.326;2022-12-17T00:52:57;-1.60;92.00
7844;DHT22;3967;48.702;9.326;2022-12-17T00:55:43;-1.50;92.00
7844;DHT22;3967;48.702;9.326;2022-12-17T00:58:28;-1.50;91.70
7844;DHT22;3967;48.702;9.326;2022-12-17T01:01:14;-1.60;91.90
7844;DHT22;3967;48.702;9.326;2022-12-17T01:04:00;-1.60;91.60
7844;DHT22;3967;48.702;9.326;2022-12-17T01:06:45;-1.60;91.40
7844;DHT22;3967;48.702;9.326;2022-12-17T01:09:30;-1.70;91.30
7844;DHT22;3967;48.702;9.326;2022-12-17T01:12:16;-1.70;91.40
7844;DHT22;3967;48.702;9.326;2022-12-17T01:15:01;-1.80;91.40
7844;DHT22;3967;48.702;9.326;2022-12-17T01:17:46;-1.80;91.50
7844;DHT22;3967;48.702;9.326;2022-12-17T01:20:32;-1.80;91.50
7844;DHT22;3967;48.702;9.326;2022-12-17T01:23:17;-1.90;91.50
7844;DHT22;3967;48.702;9.326;2022-12-17T01:26:04;-2.00;91.50
7844;DHT22;3967;48.702;9.326;2022-12-17T01:28:49;-2.00;92.10
7844;DHT22;3967;48.702;9.326;2022-12-17T01:31:34;-2.00;92.20
7844;DHT22;3967;48.702;9.326;2022-12-17T01:34:20;-2.10;92.20
7844;DHT22;3967;48.702;9.326;2022-12-17T01:37:05;-2.20;92.40
7844;DHT22;3967;48.702;9.326;2022-12-17T01:39:50;-2.20;92.40
7844;DHT22;3967;48.702;9.326;2022-12-17T01:42:40;-2.30;92.20
7844;DHT22;3967;48.702;9.326;2022-12-17T01:45:30;-2.30;92.30
7844;DHT22;3967;48.702;9.326;2022-12-17T01:48:17;-2.30;92.30
7844;DHT22;3967;48.702;9.326;2022-12-17T01:51:03;-2.40;91.90
7844;DHT22;3967;48.702;9.326;2022-12-17T01:53:50;-2.40;92.10
7844;DHT22;3967;48.702;9.326;2022-12-17T01:56:39;-2.50;92.00
7844;DHT22;3967;48.702;9.326;2022-12-17T01:59:47;-2.40;92.00
7844;DHT22;3967;48.702;9.326;2022-12-17T02:02:34;-2.40;91.80
7844;DHT22;3967;48.702;9.326;2022-12-17T02:05:24;-2.50;91.70
7844;DHT22;3967;48.702;9.326;2022-12-17T02:08:31;-2.50;91.80
7844;DHT22;3967;48.702;9.326;2022-12-17T02:14:28;-2.60;91.80
7844;DHT22;3967;48.702;9.326;2022-12-17T02:17:20;-2.60;91.60
7844;DHT22;3967;48.702;9.326;2022-12-17T02:20:25;-2.60;91.40
7844;DHT22;3967;48.702;9.326;2022-12-17T02:29:14;-2.70;91.60
7844;DHT22;3967;48.702;9.326;2022-12-17T02:32:01;-2.80;91.40
7844;DHT22;3967;48.702;9.326;2022-12-17T02:34:48;-2.70;91.60
7844;DHT22;3967;48.702;9.326;2022-12-17T02:37:33;-2.80;91.40
7844;DHT22;3967;48.702;9.326;2022-12-17T02:40:21;-2.80;91.60
7844;DHT22;3967;48.702;9.326;2022-12-17T02:43:08;-2.80;91.80
7844;DHT22;3967;48.702;9.326;2022-12-17T02:45:55;-2.90;91.70
7844;DHT22;3967;48.702;9.326;2022-12-17T02:48:40;-2.80;92.20
7844;DHT22;3967;48.702;9.326;2022-12-17T02:51:26;-3.00;92.30
7844;DHT22;3967;48.702;9.326;2022-12-17T02:54:11;-3.00;93.00
7844;DHT22;3967;48.702;9.326;2022-12-17T02:56:56;-2.90;93.50
7844;DHT22;3967;48.702;9.326;2022-12-17T02:59:42;-2.90;93.60
7844;DHT22;3967;48.702;9.326;2022-12-17T03:02:27;-2.90;93.70
7844;DHT22;3967;48.702;9.326;2022-12-17T03:05:13;-2.90;94.10
7844;DHT22;3967;48.702;9.326;2022-12-17T03:08:13;-3.10;94.60
7844;DHT22;3967;48.702;9.326;2022-12-17T03:10:59;-3.10;95.30
7844;DHT22;3967;48.702;9.326;2022-12-17T03:13:44;-3.10;95.50
7844;DHT22;3967;48.702;9.326;2022-12-17T03:16:34;-3.20;95.80
7844;DHT22;3967;48.702;9.326;2022-12-17T03:19:20;-3.30;96.00
7844;DHT22;3967;48.702;9.326;2022-12-17T03:22:05;-3.30;96.40
7844;DHT22;3967;48.702;9.326;2022-12-17T03:24:50;-3.30;96.90
7844;DHT22;3967;48.702;9.326;2022-12-17T03:27:36;-3.20;96.90
7844;DHT22;3967;48.702;9.326;2022-12-17T03:30:21;-3.20;96.70
7844;DHT22;3967;48.702;9.326;2022-12-17T03:33:14;-3.10;96.80
7844;DHT22;3967;48.702;9.326;2022-12-17T03:36:00;-3.20;96.40
7844;DHT22;3967;48.702;9.326;2022-12-17T03:38:45;-3.20;96.50
7844;DHT22;3967;48.702;9.326;2022-12-17T03:41:31;-3.20;96.80
7844;DHT22;3967;48.702;9.326;2022-12-17T03:44:21;-3.10;96.70
7844;DHT22;3967;48.702;9.326;2022-12-17T03:47:06;-3.20;96.50
7844;DHT22;3967;48.702;9.326;2022-12-17T03:49:51;-3.10;96.90
7844;DHT22;3967;48.702;9.326;2022-12-17T03:52:37;-3.00;96.90
7844;DHT22;3967;48.702;9.326;2022-12-17T03:55:22;-3.10;96.60
7844;DHT22;3967;48.702;9.326;2022-12-17T03:58:27;-3.00;96.80
7844;DHT22;3967;48.702;9.326;2022-12-17T04:01:13;-3.10;96.60
7844;DHT22;3967;48.702;9.326;2022-12-17T04:03:58;-3.10;96.80
7844;DHT22;3967;48.702;9.326;2022-12-17T04:06:44;-3.10;96.80
7844;DHT22;3967;48.702;9.326;2022-12-17T04:09:29;-3.10;96.80
7844;DHT22;3967;48.702;9.326;2022-12-17T04:12:15;-3.20;96.90
7844;DHT22;3967;48.702;9.326;2022-12-17T04:15:00;-3.10;97.10
7844;DHT22;3967;48.702;9.326;2022-12-17T04:17:46;-3.10;97.10
7844;DHT22;3967;48.702;9.326;2022-12-17T04:20:31;-3.10;97.00
7844;DHT22;3967;48.702;9.326;2022-12-17T04:23:17;-3.10;97.10
7844;DHT22;3967;48.702;9.326;2022-12-17T04:26:03;-3.20;96.60
7844;DHT22;3967;48.702;9.326;2022-12-17T04:28:48;-3.20;96.50
7844;DHT22;3967;48.702;9.326;2022-12-17T04:31:34;-3.20;96.60
7844;DHT22;3967;48.702;9.326;2022-12-17T04:34:19;-3.00;96.80
7844;DHT22;3967;48.702;9.326;2022-12-17T04:37:04;-3.10;96.60
7844;DHT22;3967;48.702;9.326;2022-12-17T04:39:50;-3.10;96.60
7844;DHT22;3967;48.702;9.326;2022-12-17T04:42:35;-3.10;96.80
7844;DHT22;3967;48.702;9.326;2022-12-17T04:45:20;-3.00;96.50
7844;DHT22;3967;48.702;9.326;2022-12-17T04:48:07;-3.10;96.60
7844;DHT22;3967;48.702;9.326;2022-12-17T04:50:53;-3.10;96.70
7844;DHT22;3967;48.702;9.326;2022-12-17T04:53:38;-3.20;96.80
7844;DHT22;3967;48.702;9.326;2022-12-17T04:56:24;-3.20;96.80
7844;DHT22;3967;48.702;9.326;2022-12-17T04:59:09;-3.20;97.20
7844;DHT22;3967;48.702;9.326;2022-12-17T05:01:55;-3.10;97.20
7844;DHT22;3967;48.702;9.326;2022-12-17T05:04:40;-3.10;96.80
7844;DHT22;3967;48.702;9.326;2022-12-17T05:07:26;-3.10;96.80
7844;DHT22;3967;48.702;9.326;2022-12-17T05:10:11;-3.00;96.90
7844;DHT22;3967;48.702;9.326;2022-12-17T05:13:00;-2.80;96.80
7844;DHT22;3967;48.702;9.326;2022-12-17T05:15:46;-2.90;96.80
7844;DHT22;3967;48.702;9.326;2022-12-17T05:18:31;-2.90;97.00
7844;DHT22;3967;48.702;9.326;2022-12-17T05:21:17;-2.80;97.30
7844;DHT22;3967;48.702;9.326;2022-12-17T05:24:02;-2.80;97.60
7844;DHT22;3967;48.702;9.326;2022-12-17T05:26:48;-2.80;97.80
7844;DHT22;3967;48.702;9.326;2022-12-17T05:29:33;-2.90;97.90
7844;DHT22;3967;48.702;9.326;2022-12-17T05:32:19;-3.00;97.80
7844;DHT22;3967;48.702;9.326;2022-12-17T05:35:04;-2.90;97.90
7844;DHT22;3967;48.702;9.326;2022-12-17T05:37:50;-2.90;97.60
7844;DHT22;3967;48.702;9.326;2022-12-17T05:40:35;-2.80;97.60
7844;DHT22;3967;48.702;9.326;2022-12-17T05:43:21;-2.80;97.50
7844;DHT22;3967;48.702;9.326;2022-12-17T05:46:06;-2.90;98.40
7844;DHT22;3967;48.702;9.326;2022-12-17T05:48:51;-2.90;98.90
7844;DHT22;3967;48.702;9.326;2022-12-17T05:51:36;-3.10;98.30
7844;DHT22;3967;48.702;9.326;2022-12-17T05:54:22;-3.20;97.70
7844;DHT22;3967;48.702;9.326;2022-12-17T05:57:07;-3.30;96.70
7844;DHT22;3967;48.702;9.326;2022-12-17T05:59:53;-3.20;96.50
7844;DHT22;3967;48.702;9.326;2022-12-17T06:02:38;-3.20;96.20
7844;DHT22;3967;48.702;9.326;2022-12-17T06:05:24;-3.10;95.90
7844;DHT22;3967;48.702;9.326;2022-12-17T06:08:09;-3.20;95.80
7844;DHT22;3967;48.702;9.326;2022-12-17T06:10:58;-3.30;96.10
7844;DHT22;3967;48.702;9.326;2022-12-17T06:13:44;-3.20;96.20
7844;DHT22;3967;48.702;9.326;2022-12-17T06:16:30;-3.20;96.20
7844;DHT22;3967;48.702;9.326;2022-12-17T06:19:16;-3.10;96.50
7844;DHT22;3967;48.702;9.326;2022-12-17T06:22:01;-3.10;96.40
7844;DHT22;3967;48.702;9.326;2022-12-17T06:24:47;-3.10;96.30
7844;DHT22;3967;48.702;9.326;2022-12-17T06:27:32;-3.10;96.50
7844;DHT22;3967;48.702;9.326;2022-12-17T06:30:18;-3.00;96.30
7844;DHT22;3967;48.702;9.326;2022-12-17T06:33:09;-3.20;96.10
7844;DHT22;3967;48.702;9.326;2022-12-17T06:35:56;-3.20;96.30
7844;DHT22;3967;48.702;9.326;2022-12-17T06:38:48;-3.20;96.60
7844;DHT22;3967;48.702;9.326;2022-12-17T06:41:34;-3.10;96.90
7844;DHT22;3967;48.702;9.326;2022-12-17T06:44:29;-3.00;96.70
7844;DHT22;3967;48.702;9.326;2022-12-17T06:47:15;-3.00;97.10
7844;DHT22;3967;48.702;9.326;2022-12-17T06:50:00;-3.20;97.00
7844;DHT22;3967;48.702;9.326;2022-12-17T06:52:46;-3.20;97.00
7844;DHT22;3967;48.702;9.326;2022-12-17T06:55:34;-3.10;96.80
7844;DHT22;3967;48.702;9.326;2022-12-17T06:58:19;-3.00;96.60
7844;DHT22;3967;48.702;9.326;2022-12-17T07:01:04;-3.20;96.70
7844;DHT22;3967;48.702;9.326;2022-12-17T07:03:50;-3.20;97.00
7844;DHT22;3967;48.702;9.326;2022-12-17T07:06:35;-3.20;96.90
7844;DHT22;3967;48.702;9.326;2022-12-17T07:09:20;-3.00;96.90
7844;DHT22;3967;48.702;9.326;2022-12-17T07:12:06;-3.00;96.80
7844;DHT22;3967;48.702;9.326;2022-12-17T07:14:51;-2.90;97.00
7844;DHT22;3967;48.702;9.326;2022-12-17T07:17:36;-3.00;97.30
7844;DHT22;3967;48.702;9.326;2022-12-17T07:20:22;-2.90;97.90
7844;DHT22;3967;48.702;9.326;2022-12-17T07:23:08;-2.90;98.00
7844;DHT22;3967;48.702;9.326;2022-12-17T07:25:53;-3.00;98.20
7844;DHT22;3967;48.702;9.326;2022-12-17T07:28:40;-2.90;97.90
7844;DHT22;3967;48.702;9.326;2022-12-17T07:31:25;-3.20;97.60
7844;DHT22;3967;48.702;9.326;2022-12-17T07:34:11;-3.30;98.20
7844;DHT22;3967;48.702;9.326;2022-12-17T07:36:56;-3.20;98.10
7844;DHT22;3967;48.702;9.326;2022-12-17T07:39:46;-3.20;97.90
7844;DHT22;3967;48.702;9.326;2022-12-17T07:42:31;-3.20;97.90
7844;DHT22;3967;48.702;9.326;2022-12-17T07:45:17;-3.00;97.40
7844;DHT22;3967;48.702;9.326;2022-12-17T07:48:03;-3.00;97.00
7844;DHT22;3967;48.702;9.326;2022-12-17T07:50:49;-2.90;97.10
7844;DHT22;3967;48.702;9.326;2022-12-17T07:53:34;-3.10;96.90
7844;DHT22;3967;48.702;9.326;2022-12-17T07:56:20;-3.00;97.30
7844;DHT22;3967;48.702;9.326;2022-12-17T07:59:05;-2.80;97.30
7844;DHT22;3967;48.702;9.326;2022-12-17T08:01:51;-2.90;96.90
7844;DHT22;3967;48.702;9.326;2022-12-17T08:04:37;-3.00;97.10
7844;DHT22;3967;48.702;9.326;2022-12-17T08:07:22;-2.90;97.00
7844;DHT22;3967;48.702;9.326;2022-12-17T08:10:07;-2.70;97.90
7844;DHT22;3967;48.702;9.326;2022-12-17T08:13:01;-2.80;97.50
7844;DHT22;3967;48.702;9.326;2022-12-17T08:15:47;-3.20;97.10
7844;DHT22;3967;48.702;9.326;2022-12-17T08:18:33;-3.10;97.50
7844;DHT22;3967;48.702;9.326;2022-12-17T08:21:18;-2.90;97.00
7844;DHT22;3967;48.702;9.326;2022-12-17T08:24:03;-2.90;96.40
7844;DHT22;3967;48.702;9.326;2022-12-17T08:26:49;-3.30;96.80
7844;DHT22;3967;48.702;9.326;2022-12-17T08:29:34;-3.20;98.70
7844;DHT22;3967;48.702;9.326;2022-12-17T08:32:20;-3.40;98.90
7844;DHT22;3967;48.702;9.326;2022-12-17T08:35:06;-3.20;99.30
7844;DHT22;3967;48.702;9.326;2022-12-17T08:37:51;-3.20;98.70
7844;DHT22;3967;48.702;9.326;2022-12-17T08:40:37;-3.20;98.70
7844;DHT22;3967;48.702;9.326;2022-12-17T08:43:22;-3.20;98.60
7844;DHT22;3967;48.702;9.326;2022-12-17T08:46:08;-3.20;99.10
7844;DHT22;3967;48.702;9.326;2022-12-17T08:48:53;-3.20;98.80
7844;DHT22;3967;48.702;9.326;2022-12-17T08:51:39;-3.40;99.90
7844;DHT22;3967;48.702;9.326;2022-12-17T08:54:24;-3.20;99.90
7844;DHT22;3967;48.702;9.326;2022-12-17T08:57:09;-3.60;99.60
7844;DHT22;3967;48.702;9.326;2022-12-17T08:59:58;-3.80;99.90
7844;DHT22;3967;48.702;9.326;2022-12-17T09:02:43;-3.50;99.90
7844;DHT22;3967;48.702;9.326;2022-12-17T09:05:29;-3.10;99.90
7844;DHT22;3967;48.702;9.326;2022-12-17T09:08:23;-3.10;99.20
7844;DHT22;3967;48.702;9.326;2022-12-17T09:11:09;-3.10;98.70
7844;DHT22;3967;48.702;9.326;2022-12-17T09:13:54;-3.00;98.60
7844;DHT22;3967;48.702;9.326;2022-12-17T09:16:39;-3.10;98.10
7844;DHT22;3967;48.702;9.326;2022-12-17T09:19:25;-3.00;98.80
7844;DHT22;3967;48.702;9.326;2022-12-17T09:22:10;-2.80;98.80
7844;DHT22;3967;48.702;9.326;2022-12-17T09:24:56;-3.10;98.80
7844;DHT22;3967;48.702;9.326;2022-12-17T09:27:41;-3.20;99.20
7844;DHT22;3967;48.702;9.326;2022-12-17T09:30:26;-3.10;99.30
7844;DHT22;3967;48.702;9.326;2022-12-17T09:33:15;-3.00;98.50
7844;DHT22;3967;48.702;9.326;2022-12-17T09:36:03;-3.30;97.90
7844;DHT22;3967;48.702;9.326;2022-12-17T09:38:49;-3.40;99.20
7844;DHT22;3967;48.702;9.326;2022-12-17T09:51:03;-2.60;99.90
7844;DHT22;3967;48.702;9.326;2022-12-17T09:53:50;-2.60;98.70
7844;DHT22;3967;48.702;9.326;2022-12-17T09:56:37;-2.70;98.20
7844;DHT22;3967;48.702;9.326;2022-12-17T09:59:32;-2.80;98.10
7844;DHT22;3967;48.702;9.326;2022-12-17T10:02:19;-2.80;97.90
7844;DHT22;3967;48.702;9.326;2022-12-17T10:05:17;-2.80;98.00
7844;DHT22;3967;48.702;9.326;2022-12-17T10:08:04;-2.90;98.30
7844;DHT22;3967;48.702;9.326;2022-12-17T10:10:51;-2.80;98.00
7844;DHT22;3967;48.702;9.326;2022-12-17T10:13:37;-2.70;98.00
7844;DHT22;3967;48.702;9.326;2022-12-17T10:16:33;-2.50;98.00
7844;DHT22;3967;48.702;9.326;2022-12-17T10:19:37;-2.60;97.60
7844;DHT22;3967;48.702;9.326;2022-12-17T10:22:24;-2.60;97.20
7844;DHT22;3967;48.702;9.326;2022-12-17T10:25:20;-2.80;97.20
7844;DHT22;3967;48.702;9.326;2022-12-17T10:28:18;-2.70;98.50
7844;DHT22;3967;48.702;9.326;2022-12-17T10:31:15;-3.00;98.20
7844;DHT22;3967;48.702;9.326;2022-12-17T10:34:01;-3.00;98.30
7844;DHT22;3967;48.702;9.326;2022-12-17T10:36:50;-3.00;98.30
7844;DHT22;3967;48.702;9.326;2022-12-17T10:39:37;-2.70;98.50
7844;DHT22;3967;48.702;9.326;2022-12-17T10:42:24;-2.60;97.50
7844;DHT22;3967;48.702;9.326;2022-12-17T10:51:23;-2.80;98.20
7844;DHT22;3967;48.702;9.326;2022-12-17T10:54:28;-2.90;97.70
7844;DHT22;3967;48.702;9.326;2022-12-17T10:57:35;-2.70;97.70
7844;DHT22;3967;48.702;9.326;2022-12-17T11:00:24;-2.70;96.70
7844;DHT22;3967;48.702;9.326;2022-12-17T11:06:18;-2.80;97.30
7844;DHT22;3967;48.702;9.326;2022-12-17T11:09:35;-2.90;97.60
7844;DHT22;3967;48.702;9.326;2022-12-17T11:12:25;-2.80;97.30
7844;DHT22;3967;48.702;9.326;2022-12-17T11:18:31;-3.40;98.60
7844;DHT22;3967;48.702;9.326;2022-12-17T11:21:23;-3.20;98.70
7844;DHT22;3967;48.702;9.326;2022-12-17T11:24:17;-3.20;98.60
7844;DHT22;3967;48.702;9.326;2022-12-17T11:27:07;-3.20;98.30
7844;DHT22;3967;48.702;9.326;2022-12-17T11:29:54;-3.60;99.40
7844;DHT22;3967;48.702;9.326;2022-12-17T11:33:21;-3.20;99.90
7844;DHT22;3967;48.702;9.326;2022-12-17T11:36:56;-3.00;98.80
7844;DHT22;3967;48.702;9.326;2022-12-17T11:39:47;-3.20;98.10
7844;DHT22;3967;48.702;9.326;2022-12-17T11:42:49;-3.20;98.40
7844;DHT22;3967;48.702;9.326;2022-12-17T11:52:23;-3.20;97.50
7844;DHT22;3967;48.702;9.326;2022-12-17T11:58:13;-3.40;98.70
7844;DHT22;3967;48.702;9.326;2022-12-17T12:04:36;-2.90;98.70
7844;DHT22;3967;48.702;9.326;2022-12-17T12:10:23;-3.20;96.80
7844;DHT22;3967;48.702;9.326;2022-12-17T12:16:32;-3.20;98.50
7844;DHT22;3967;48.702;9.326;2022-12-17T12:19:33;-2.60;97.90
7844;DHT22;3967;48.702;9.326;2022-12-17T12:22:34;-2.20;96.50
7844;DHT22;3967;48.702;9.326;2022-12-17T12:25:36;-2.30;95.40
7844;DHT22;3967;48.702;9.326;2022-12-17T12:28:36;-2.00;95.20
7844;DHT22;3967;48.702;9.326;2022-12-17T12:31:43;-2.20;94.50
7844;DHT22;3967;48.702;9.326;2022-12-17T12:34:34;-2.50;95.10
7844;DHT22;3967;48.702;9.326;2022-12-17T12:37:32;-2.80;95.20
7844;DHT22;3967;48.702;9.326;2022-12-17T12:43:33;-2.70;95.60
7844;DHT22;3967;48.702;9.326;2022-12-17T12:49:33;-2.50;95.80
7844;DHT22;3967;48.702;9.326;2022-12-17T12:52:22;-2.70;95.30
7844;DHT22;3967;48.702;9.326;2022-12-17T12:55:08;-2.80;95.40
7844;DHT22;3967;48.702;9.326;2022-12-17T13:03:47;-2.80;96.00
7844;DHT22;3967;48.702;9.326;2022-12-17T13:09:44;-2.80;95.40
7844;DHT22;3967;48.702;9.326;2022-12-17T13:12:44;-2.60;95.60
7844;DHT22;3967;48.702;9.326;2022-12-17T13:15:15;-2.40;95.60
7844;DHT22;3967;48.702;9.326;2022-12-17T13:17:56;-2.20;95.30
7844;DHT22;3967;48.702;9.326;2022-12-17T13:20:32;-2.20;94.80
7844;DHT22;3967;48.702;9.326;2022-12-17T13:23:25;-2.60;94.70
7844;DHT22;3967;48.702;9.326;2022-12-17T13:26:19;-2.40;95.20
7844;DHT22;3967;48.702;9.326;2022-12-17T13:38:04;-2.50;96.20
7844;DHT22;3967;48.702;9.326;2022-12-17T13:41:11;-2.30;96.00
7844;DHT22;3967;48.702;9.326;2022-12-17T13:43:48;-2.40;95.20
7844;DHT22;3967;48.702;9.326;2022-12-17T13:46:42;-2.40;95.70
7844;DHT22;3967;48.702;9.326;2022-12-17T13:49:24;-2.50;95.30
7844;DHT22;3967;48.702;9.326;2022-12-17T13:52:05;-2.30;95.30
7844;DHT22;3967;48.702;9.326;2022-12-17T13:54:37;-2.20;95.00
7844;DHT22;3967;48.702;9.326;2022-12-17T13:57:24;-2.30;94.60
7844;DHT22;3967;48.702;9.326;2022-12-17T13:59:56;-2.60;94.80
7844;DHT22;3967;48.702;9.326;2022-12-17T14:02:34;-2.70;95.50
7844;DHT22;3967;48.702;9.326;2022-12-17T14:05:07;-2.70;95.50
7844;DHT22;3967;48.702;9.326;2022-12-17T14:07:46;-2.70;95.80
7844;DHT22;3967;48.702;9.326;2022-12-17T14:10:16;-2.60;95.90
7844;DHT22;3967;48.702;9.326;2022-12-17T14:12:44;-2.60;95.50
7844;DHT22;3967;48.702;9.326;2022-12-17T14:15:25;-2.50;95.40
7844;DHT22;3967;48.702;9.326;2022-12-17T14:17:54;-2.60;94.90
7844;DHT22;3967;48.702;9.326;2022-12-17T14:20:24;-2.60;95.00
7844;DHT22;3967;48.702;9.326;2022-12-17T14:22:54;-2.60;95.20
7844;DHT22;3967;48.702;9.326;2022-12-17T14:25:25;-2.60;95.00
7844;DHT22;3967;48.702;9.326;2022-12-17T14:27:58;-2.50;94.90
7844;DHT22;3967;48.702;9.326;2022-12-17T14:30:39;-2.50;94.80
7844;DHT22;3967;48.702;9.326;2022-12-17T14:33:31;-2.50;94.50
7844;DHT22;3967;48.702;9.326;2022-12-17T14:36:00;-2.60;94.50
7844;DHT22;3967;48.702;9.326;2022-12-17T14:38:29;-2.60;94.50
7844;DHT22;3967;48.702;9.326;2022-12-17T14:41:11;-2.60;94.60
7844;DHT22;3967;48.702;9.326;2022-12-17T14:43:59;-2.50;94.50
7844;DHT22;3967;48.702;9.326;2022-12-17T14:46:31;-2.50;94.30
7844;DHT22;3967;48.702;9.326;2022-12-17T14:49:00;-2.50;94.30
7844;DHT22;3967;48.702;9.326;2022-12-17T14:56:52;-2.40;94.40
7844;DHT22;3967;48.702;9.326;2022-12-17T14:59:37;-2.50;93.80
7844;DHT22;3967;48.702;9.326;2022-12-17T15:04:36;-2.30;93.60
7844;DHT22;3967;48.702;9.326;2022-12-17T15:07:05;-2.40;93.40
7844;DHT22;3967;48.702;9.326;2022-12-17T15:09:36;-2.40;93.30
7844;DHT22;3967;48.702;9.326;2022-12-17T15:12:03;-2.60;93.20
7844;DHT22;3967;48.702;9.326;2022-12-17T15:14:30;-2.60;93.40
7844;DHT22;3967;48.702;9.326;2022-12-17T15:16:56;-2.60;93.40
7844;DHT22;3967;48.702;9.326;2022-12-17T15:19:25;-2.70;93.60
7844;DHT22;3967;48.702;9.326;2022-12-17T15:21:51;-2.80;93.60
7844;DHT22;3967;48.702;9.326;2022-12-17T15:24:19;-2.80;93.90
7844;DHT22;3967;48.702;9.326;2022-12-17T15:26:47;-2.80;94.10
7844;DHT22;3967;48.702;9.326;2022-12-17T15:29:13;-2.80;94.10
7844;DHT22;3967;48.702;9.326;2022-12-17T15:31:40;-3.00;94.20
7844;DHT22;3967;48.702;9.326;2022-12-17T15:34:09;-3.00;94.60
7844;DHT22;3967;48.702;9.326;2022-12-17T15:36:36;-3.00;94.90
7844;DHT22;3967;48.702;9.326;2022-12-17T15:39:03;-3.00;95.10
7844;DHT22;3967;48.702;9.326;2022-12-17T15:41:34;-3.00;95.00
7844;DHT22;3967;48.702;9.326;2022-12-17T15:44:19;-3.10;95.10
7844;DHT22;3967;48.702;9.326;2022-12-17T15:46:46;-3.10;95.40
7844;DHT22;3967;48.702;9.326;2022-12-17T15:49:12;-3.20;95.40
7844;DHT22;3967;48.702;9.326;2022-12-17T15:51:39;-3.10;95.50
7844;DHT22;3967;48.702;9.326;2022-12-17T15:54:06;-3.10;95.40
7844;DHT22;3967;48.702;9.326;2022-12-17T15:56:32;-3.00;95.50
7844;DHT22;3967;48.702;9.326;2022-12-17T15:59:00;-3.10;95.30
7844;DHT22;3967;48.702;9.326;2022-12-17T16:01:27;-3.10;95.30
7844;DHT22;3967;48.702;9.326;2022-12-17T16:03:53;-3.10;95.60
7844;DHT22;3967;48.702;9.326;2022-12-17T16:06:20;-3.10;95.60
7844;DHT22;3967;48.702;9.326;2022-12-17T16:08:47;-3.10;95.60
7844;DHT22;3967;48.702;9.326;2022-12-17T16:11:14;-3.20;95.60
7844;DHT22;3967;48.702;9.326;2022-12-17T16:13:41;-3.20;95.50
7844;DHT22;3967;48.702;9.326;2022-12-17T16:16:08;-3.30;95.80
7844;DHT22;3967;48.702;9.326;2022-12-17T16:18:35;-3.40;95.60
7844;DHT22;3967;48.702;9.326;2022-12-17T16:21:06;-3.40;96.00
7844;DHT22;3967;48.702;9.326;2022-12-17T16:23:33;-3.40;96.10
7844;DHT22;3967;48.702;9.326;2022-12-17T16:26:02;-3.30;96.20
7844;DHT22;3967;48.702;9.326;2022-12-17T16:28:30;-3.30;96.30
7844;DHT22;3967;48.702;9.326;2022-12-17T16:31:01;-3.40;96.10
7844;DHT22;3967;48.702;9.326;2022-12-17T16:33:36;-3.30;96.40
7844;DHT22;3967;48.702;9.326;2022-12-17T16:36:04;-3.40;96.10
7844;DHT22;3967;48.702;9.326;2022-12-17T16:38:32;-3.50;96.30
7844;DHT22;3967;48.702;9.326;2022-12-17T16:41:01;-3.60;96.40
7844;DHT22;3967;48.702;9.326;2022-12-17T16:43:32;-3.50;97.00
7844;DHT22;3967;48.702;9.326;2022-12-17T16:45:59;-3.80;96.50
7844;DHT22;3967;48.702;9.326;2022-12-17T16:48:26;-3.60;97.50
7844;DHT22;3967;48.702;9.326;2022-12-17T16:50:52;-3.60;97.20
7844;DHT22;3967;48.702;9.326;2022-12-17T16:53:19;-3.60;97.20
7844;DHT22;3967;48.702;9.326;2022-12-17T16:55:48;-3.70;97.30
7844;DHT22;3967;48.702;9.326;2022-12-17T16:58:16;-3.80;97.90
7844;DHT22;3967;48.702;9.326;2022-12-17T17:00:43;-4.10;98.20
7844;DHT22;3967;48.702;9.326;2022-12-17T17:03:11;-4.10;98.80
7844;DHT22;3967;48.702;9.326;2022-12-17T17:05:39;-4.70;98.90
7844;DHT22;3967;48.702;9.326;2022-12-17T17:08:08;-4.60;99.90
7844;DHT22;3967;48.702;9.326;2022-12-17T17:10:38;-4.30;99.90
7844;DHT22;3967;48.702;9.326;2022-12-17T17:13:09;-4.40;99.70
7844;DHT22;3967;48.702;9.326;2022-12-17T17:15:36;-4.50;99.80
7844;DHT22;3967;48.702;9.326;2022-12-17T17:18:03;-4.60;99.90
7844;DHT22;3967;48.702;9.326;2022-12-17T17:20:29;-4.60;99.90
7844;DHT22;3967;48.702;9.326;2022-12-17T17:22:58;-4.30;99.90
7844;DHT22;3967;48.702;9.326;2022-12-17T17:25:26;-4.30;99.90
7844;DHT22;3967;48.702;9.326;2022-12-17T17:28:13;-4.20;99.90
7844;DHT22;3967;48.702;9.326;2022-12-17T17:30:39;-4.30;99.90
7844;DHT22;3967;48.702;9.326;2022-12-17T17:33:06;-4.30;99.90
7844;DHT22;3967;48.702;9.326;2022-12-17T17:35:33;-4.20;99.90
7844;DHT22;3967;48.702;9.326;2022-12-17T17:37:59;-4.20;99.90
7844;DHT22;3967;48.702;9.326;2022-12-17T17:40:26;-4.10;99.90
7844;DHT22;3967;48.702;9.326;2022-12-17T17:42:57;-4.10;99.90
7844;DHT22;3967;48.702;9.326;2022-12-17T17:45:23;-4.10;99.90
7844;DHT22;3967;48.702;9.326;2022-12-17T17:47:50;-4.00;99.90
7844;DHT22;3967;48.702;9.326;2022-12-17T17:50:17;-4.10;99.90
7844;DHT22;3967;48.702;9.326;2022-12-17T17:52:43;-4.20;99.90
7844;DHT22;3967;48.702;9.326;2022-12-17T17:55:10;-4.30;99.90
7844;DHT22;3967;48.702;9.326;2022-12-17T17:57:37;-4.40;99.90
7844;DHT22;3967;48.702;9.326;2022-12-17T18:00:04;-4.20;99.90
7844;DHT22;3967;48.702;9.326;2022-12-17T18:02:31;-4.10;99.90
7844;DHT22;3967;48.702;9.326;2022-12-17T18:04:58;-4.00;99.90
7844;DHT22;3967;48.702;9.326;2022-12-17T18:07:25;-3.90;99.90
7844;DHT22;3967;48.702;9.326;2022-12-17T18:09:54;-3.90;99.90
7844;DHT22;3967;48.702;9.326;2022-12-17T18:12:21;-4.10;99.90
7844;DHT22;3967;48.702;9.326;2022-12-17T18:15:07;-4.00;99.90
7844;DHT22;3967;48.702;9.326;2022-12-17T18:17:46;-4.20;99.90
7844;DHT22;3967;48.702;9.326;2022-12-17T18:20:13;-4.20;99.90
7844;DHT22;3967;48.702;9.326;2022-12-17T18:22:40;-4.10;99.90
7844;DHT22;3967;48.702;9.326;2022-12-17T18:25:07;-4.10;99.90
7844;DHT22;3967;48.702;9.326;2022-12-17T18:27:34;-4.10;99.90
7844;DHT22;3967;48.702;9.326;2022-12-17T18:30:00;-4.10;99.90
7844;DHT22;3967;48.702;9.326;2022-12-17T18:32:27;-4.20;99.90
7844;DHT22;3967;48.702;9.326;2022-12-17T18:34:54;-4.30;99.90
7844;DHT22;3967;48.702;9.326;2022-12-17T18:37:21;-4.20;99.90
7844;DHT22;3967;48.702;9.326;2022-12-17T18:39:48;-4.20;99.90
7844;DHT22;3967;48.702;9.326;2022-12-17T18:42:14;-4.10;99.90
7844;DHT22;3967;48.702;9.326;2022-12-17T18:45:00;-4.10;99.90
7844;DHT22;3967;48.702;9.326;2022-12-17T18:47:27;-4.10;99.90
7844;DHT22;3967;48.702;9.326;2022-12-17T18:49:54;-4.10;99.90
7844;DHT22;3967;48.702;9.326;2022-12-17T18:52:22;-4.10;99.90
7844;DHT22;3967;48.702;9.326;2022-12-17T18:54:49;-4.00;99.90
7844;DHT22;3967;48.702;9.326;2022-12-17T18:57:16;-4.00;99.90
7844;DHT22;3967;48.702;9.326;2022-12-17T18:59:43;-4.00;99.90
7844;DHT22;3967;48.702;9.326;2022-12-17T19:02:14;-4.10;99.90